Startpagina
METAR-TAF:

METAR-TAF

Vliegvelden :

McCall Municipal Airport

McCall, Idaho, Verenigde Staten

breedte: 44-53-00N, lengte: 116-05-58W, hoogte: 1530 m

Actueel weer

Dit bericht is 1 uur en het 6 minuten geleden gemaakt, om 16:51 UTC
Weinig wind
Temperatuur -1°C
Vochtigheid 93%
Druk 1020 hPa
Zicht: 16.1 km
Geheel bewolkt op 3500 ft

METAR: KMYL 161651Z AUTO 00000KT 10SM OVC035 M01/M02 A3013 RMK AO2 SLP231 T10111022

Tijdstip: 10:57 (17:57 UTC)

Verwachting

Dit bericht is 37 minuten geleden gemaakt, om 17:20 UTC
Verwachting geldig van 16 om 18 UTC tot 17 om 18 UTC
Wind 3 kt uit variabele richting
Zicht: 10 km
Gebroken wolken op 3500 ft
buien in de omgeving
Van 17 om 0600 UTC
Wind 5 kt uit het noordnoordwesten
Zicht: 10 km
Geheel bewolkt op 5000 ft
Tijdelijke
van 17 om 11 UTC tot 17 om 15 UTC
Zicht: 0.8 km
op 200 ft
mist

TAF: KMYL 161720Z 1618/1718 VRB03KT P6SM VCSH BKN035 FM170600 34005KT P6SM OVC050 TEMPO 1711/1715 1/2SM FG VV002

Waarnemingen en weersverwachtingen van meer dan 4000 vliegvelden (METAR en TAF).

De beschikbare stations zijn de gele en rode punten op de kaart.

Ga met uw muis naar het station om de naam te zien.

Klik dan om waarnemingen en weersverwachtingen te zien.

kaart wijzigen: klik op de groene knoppen met een zwart kruis om in te zoomen, op de groene knop met een streepje om uit te zoomen of op de groene pijlen voor aangrenzende kaarten.


METAR-TAF: